Time;durP1;ratioP1;P1;durP2;ratioP2;P2;SDS_P1;SDS_P2;PMS_P1;PMS_P2;Temp;Humidity;BMP_temperature;BMP_pressure;BME280_temperature;BME280_humidity;BME280_pressure;Samples;Min_cycle;Max_cycle;Signal;HPM_P1;HPM_P2
2021/06/01 00:00:41;;;;;;;18.08;11.05;;;5.90;94.10;;;;;;5035297;28;20069;-76
2021/06/01 00:03:06;;;;;;;20.38;12.77;;;5.90;94.70;;;;;;5036030;28;20060;-76
2021/06/01 00:05:32;;;;;;;13.63;9.07;;;5.90;94.50;;;;;;5034639;28;20072;-76
2021/06/01 00:07:58;;;;;;;8.80;4.90;;;5.90;94.00;;;;;;5035956;28;20037;-76
2021/06/01 00:10:23;;;;;;;9.77;5.47;;;5.90;93.00;;;;;;5034466;28;20483;-76
2021/06/01 00:12:49;;;;;;;11.40;7.00;;;5.80;91.60;;;;;;5034959;28;20029;-76
2021/06/01 00:15:15;;;;;;;8.68;5.60;;;5.80;92.40;;;;;;5034527;28;20029;-76
2021/06/01 00:17:40;;;;;;;12.50;6.40;;;5.80;92.90;;;;;;5034699;28;20032;-77
2021/06/01 00:20:10;;;;;;;13.85;7.85;;;5.70;93.20;;;;;;5036147;28;20026;-76
2021/06/01 00:22:36;;;;;;;13.02;7.88;;;5.70;93.10;;;;;;5034244;28;20061;-76
2021/06/01 00:25:03;;;;;;;15.23;8.00;;;5.70;93.80;;;;;;5036006;28;20026;-77
2021/06/01 00:27:29;;;;;;;16.50;8.43;;;5.70;94.20;;;;;;5035871;28;20033;-76
2021/06/01 00:29:54;;;;;;;12.15;7.30;;;5.60;94.80;;;;;;5035987;28;20018;-76
2021/06/01 00:32:20;;;;;;;12.95;6.72;;;5.60;95.20;;;;;;5035687;28;20025;-76
2021/06/01 00:34:45;;;;;;;16.00;9.00;;;5.60;94.80;;;;;;5035664;28;20030;-76
2021/06/01 00:37:11;;;;;;;22.95;11.48;;;5.60;95.00;;;;;;5035897;28;20477;-76
2021/06/01 00:39:37;;;;;;;23.23;10.20;;;5.50;96.40;;;;;;5035646;28;20519;-76
2021/06/01 00:42:03;;;;;;;12.55;7.78;;;5.40;96.40;;;;;;5034251;28;20846;-77
2021/06/01 00:44:29;;;;;;;13.23;6.18;;;5.40;96.20;;;;;;5035550;28;20033;-76
2021/06/01 00:46:54;;;;;;;10.50;6.38;;;5.50;95.80;;;;;;5034210;28;20020;-77
2021/06/01 00:49:20;;;;;;;12.85;6.95;;;5.50;95.30;;;;;;5035486;28;20116;-76
2021/06/01 00:51:46;;;;;;;15.25;8.85;;;5.50;95.60;;;;;;5034148;28;20112;-76
2021/06/01 00:54:12;;;;;;;13.98;8.63;;;5.40;95.50;;;;;;5033949;28;20072;-76
2021/06/01 00:56:37;;;;;;;16.80;8.40;;;5.40;95.60;;;;;;5035336;28;20022;-76
2021/06/01 00:59:03;;;;;;;13.40;7.95;;;5.30;95.60;;;;;;5033942;28;20487;-76
2021/06/01 01:01:29;;;;;;;15.15;8.52;;;5.20;95.60;;;;;;5034133;28;20030;-77
2021/06/01 01:03:55;;;;;;;12.05;7.38;;;5.20;96.30;;;;;;5033996;28;20072;-76
2021/06/01 01:06:56;;;;;;;14.63;8.52;;;5.20;96.90;;;;;;5034076;28;20056;-76
2021/06/01 01:09:24;;;;;;;15.27;7.10;;;5.10;97.20;;;;;;5035088;28;20048;-76
2021/06/01 01:12:10;;;;;;;14.93;6.68;;;5.10;97.70;;;;;;5035200;28;20029;-76
2021/06/01 01:14:40;;;;;;;12.88;5.95;;;5.00;98.10;;;;;;5033637;28;20029;-76
2021/06/01 01:17:33;;;;;;;11.57;6.45;;;5.00;98.40;;;;;;5034887;28;20550;-76
2021/06/01 01:20:06;;;;;;;;;;;4.90;98.20;;;;;;5035531;28;20376;-76
2021/06/01 01:22:39;;;;;;;12.35;5.07;;;4.90;98.60;;;;;;5034911;28;20318;-76
2021/06/01 01:25:11;;;;;;;8.90;5.18;;;4.90;99.10;;;;;;5033862;28;20116;-76
2021/06/01 01:27:51;;;;;;;9.98;6.28;;;4.90;98.80;;;;;;5033567;28;20033;-76
2021/06/01 01:30:18;;;;;;;10.65;5.85;;;4.90;98.30;;;;;;5034969;28;20434;-76
2021/06/01 01:32:58;;;;;;;9.25;5.85;;;4.80;99.40;;;;;;5034567;28;20045;-76
2021/06/01 01:35:25;;;;;;;9.23;5.47;;;4.80;99.60;;;;;;5033558;28;20030;-77
2021/06/01 01:37:53;;;;;;;7.35;5.47;;;4.70;99.70;;;;;;5034615;28;20025;-76
2021/06/01 01:40:23;;;;;;;11.73;5.65;;;4.70;99.90;;;;;;5033526;28;20487;-76
2021/06/01 01:42:53;;;;;;;12.07;6.28;;;4.70;99.90;;;;;;5033360;28;20026;-76
2021/06/01 01:45:26;;;;;;;8.60;5.72;;;4.70;99.90;;;;;;5033037;28;20030;-76
2021/06/01 01:50:41;;;;;;;11.00;5.93;;;4.60;99.90;;;;;;5034302;28;20032;-76
2021/06/01 01:53:14;;;;;;;12.13;5.43;;;4.60;99.90;;;;;;5034373;28;20030;-76
2021/06/01 01:55:44;;;;;;;11.50;6.10;;;4.50;99.90;;;;;;5033207;28;20441;-76
2021/06/01 01:58:11;;;;;;;8.30;5.63;;;4.50;99.90;;;;;;5033057;28;20024;-76
2021/06/01 02:00:37;;;;;;;13.25;7.05;;;4.40;99.90;;;;;;5032857;28;20061;-76
2021/06/01 02:03:03;;;;;;;11.30;6.07;;;4.40;99.90;;;;;;5032585;28;20045;-75
2021/06/01 02:05:30;;;;;;;10.05;5.88;;;4.40;99.90;;;;;;5034200;28;20093;-76
2021/06/01 02:07:55;;;;;;;7.30;5.53;;;4.30;99.90;;;;;;5034030;28;20064;-76
2021/06/01 02:10:21;;;;;;;8.82;5.93;;;4.30;99.90;;;;;;5032837;28;20056;-76
2021/06/01 02:12:47;;;;;;;12.27;6.10;;;4.30;99.90;;;;;;5033104;28;20160;-76
2021/06/01 02:15:13;;;;;;;10.40;6.40;;;4.30;99.90;;;;;;5033854;28;20021;-76
2021/06/01 02:17:39;;;;;;;11.82;6.45;;;4.30;99.90;;;;;;5033537;28;20049;-76
2021/06/01 02:20:06;;;;;;;10.93;6.53;;;4.30;99.90;;;;;;5032650;28;20044;-75
2021/06/01 02:25:31;;;;;;;11.38;6.78;;;4.10;99.90;;;;;;5034220;28;20043;-75
2021/06/01 02:28:12;;;;;;;12.00;6.25;;;4.10;99.90;;;;;;5032441;28;20041;-76
2021/06/01 02:31:02;;;;;;;9.48;6.55;;;4.00;99.90;;;;;;5032248;28;20029;-76
2021/06/01 02:33:30;;;;;;;10.82;6.22;;;4.00;99.90;;;;;;5032431;28;20036;-76
2021/06/01 02:36:02;;;;;;;9.73;5.68;;;4.00;99.90;;;;;;5033641;28;20022;-75
2021/06/01 02:38:32;;;;;;;9.52;6.00;;;3.90;99.90;;;;;;5033364;28;20042;-76
2021/06/01 02:41:00;;;;;;;12.10;7.25;;;3.90;99.90;;;;;;5033618;28;20108;-75
2021/06/01 02:43:26;;;;;;;8.27;6.30;;;3.90;99.90;;;;;;5033356;28;20025;-75
2021/06/01 02:45:52;;;;;;;10.43;6.00;;;4.00;99.90;;;;;;5031387;28;20028;-76
2021/06/01 02:48:20;;;;;;;9.15;6.28;;;4.00;99.90;;;;;;5033075;28;20041;-76
2021/06/01 02:50:48;;;;;;;9.23;6.00;;;4.00;99.90;;;;;;5031860;28;20075;-76
2021/06/01 02:53:14;;;;;;;8.38;4.93;;;4.00;99.90;;;;;;5033316;28;20407;-76
2021/06/01 02:55:41;;;;;;;7.30;5.07;;;4.00;99.90;;;;;;5031852;28;20021;-76
2021/06/01 02:58:11;;;;;;;6.80;5.03;;;4.00;99.90;;;;;;5033244;28;20071;-75
2021/06/01 03:00:38;;;;;;;10.65;5.07;;;4.10;99.90;;;;;;5031967;28;20387;-76
2021/06/01 03:03:12;;;;;;;12.35;5.43;;;4.10;99.90;;;;;;5033128;28;20569;-76
2021/06/01 03:05:40;;;;;;;18.83;6.10;;;4.20;99.90;;;;;;5031914;28;20506;-76
2021/06/01 03:08:21;;;;;;;12.77;6.25;;;4.20;99.90;;;;;;5031544;28;20041;-76
2021/06/01 03:10:47;;;;;;;13.00;4.93;;;4.30;99.90;;;;;;5033117;28;20021;-75
2021/06/01 03:13:13;;;;;;;8.25;4.65;;;4.30;99.90;;;;;;5033096;28;20533;-75
2021/06/01 03:15:38;;;;;;;6.95;4.95;;;4.30;99.90;;;;;;5030862;28;20022;-76
2021/06/01 03:18:04;;;;;;;6.72;5.05;;;4.40;99.90;;;;;;5031387;28;20111;-76
2021/06/01 03:20:30;;;;;;;10.30;6.55;;;4.50;99.90;;;;;;5031462;28;20513;-75
2021/06/01 03:22:55;;;;;;;8.52;5.30;;;4.60;99.90;;;;;;5032926;28;20099;-76
2021/06/01 03:25:21;;;;;;;9.35;5.60;;;4.70;99.90;;;;;;5031704;28;20017;-76
2021/06/01 03:27:48;;;;;;;6.55;5.13;;;4.80;99.90;;;;;;5031454;28;20042;-76
2021/06/01 03:30:15;;;;;;;7.55;5.05;;;5.00;99.90;;;;;;5031623;28;20025;-76
2021/06/01 03:32:41;;;;;;;9.40;4.93;;;5.10;98.30;;;;;;5030625;28;20025;-75
2021/06/01 03:35:08;;;;;;;8.98;5.13;;;5.20;97.00;;;;;;5032808;28;20108;-76
2021/06/01 03:37:34;;;;;;;9.80;5.15;;;5.30;95.60;;;;;;5032697;28;20386;-76
2021/06/01 03:39:59;;;;;;;7.80;5.10;;;5.40;95.80;;;;;;5031529;28;20112;-76
2021/06/01 03:42:25;;;;;;;9.40;4.82;;;5.60;96.20;;;;;;5031329;28;20029;-76
2021/06/01 03:44:51;;;;;;;8.63;4.47;;;5.80;94.60;;;;;;5031005;28;20029;-76
2021/06/01 03:47:16;;;;;;;6.93;4.50;;;6.10;93.40;;;;;;5030870;28;20037;-76
2021/06/01 03:49:42;;;;;;;7.78;5.60;;;6.30;92.30;;;;;;5032734;28;20068;-76
2021/06/01 03:52:08;;;;;;;8.18;4.85;;;6.40;90.20;;;;;;5032429;28;20038;-76
2021/06/01 03:54:36;;;;;;;10.15;4.90;;;6.60;88.90;;;;;;5032547;28;20112;-76
2021/06/01 03:57:02;;;;;;;8.32;4.93;;;6.90;88.30;;;;;;5031355;28;20029;-76
2021/06/01 03:59:28;;;;;;;11.43;6.40;;;7.10;86.80;;;;;;5032545;28;20503;-76
2021/06/01 04:01:53;;;;;;;15.20;9.30;;;7.30;84.60;;;;;;5032562;28;20029;-76
2021/06/01 04:04:20;;;;;;;45.90;24.48;;;7.50;84.30;;;;;;5032396;28;20033;-76
2021/06/01 04:06:46;;;;;;;37.30;16.55;;;7.60;84.20;;;;;;5031155;28;20044;-76
2021/06/01 04:09:12;;;;;;;25.40;11.15;;;7.60;84.20;;;;;;5031176;28;20033;-76
2021/06/01 04:11:38;;;;;;;21.77;9.95;;;7.60;84.50;;;;;;5032492;28;20032;-76
2021/06/01 04:14:03;;;;;;;13.35;6.85;;;7.50;84.60;;;;;;5032391;28;20032;-76
2021/06/01 04:16:29;;;;;;;10.95;6.95;;;7.50;85.10;;;;;;5030684;28;20103;-77
2021/06/01 04:18:55;;;;;;;16.85;7.18;;;7.60;85.00;;;;;;5030850;28;20387;-76
2021/06/01 04:21:21;;;;;;;14.40;7.35;;;7.70;85.40;;;;;;5032234;28;20026;-77
2021/06/01 04:23:47;;;;;;;16.83;9.63;;;7.90;85.30;;;;;;5032276;28;20021;-76
2021/06/01 04:26:13;;;;;;;28.70;13.75;;;8.20;86.30;;;;;;5032841;28;20026;-76
2021/06/01 04:28:40;;;;;;;23.35;12.00;;;8.50;85.10;;;;;;5034587;28;20479;-76
2021/06/01 04:31:06;;;;;;;23.23;12.85;;;8.80;85.00;;;;;;5035806;28;20112;-76
2021/06/01 04:33:32;;;;;;;13.70;8.45;;;9.10;84.50;;;;;;5034586;28;20116;-76
2021/06/01 04:35:59;;;;;;;8.38;6.45;;;9.40;84.40;;;;;;5035928;28;20018;-76
2021/06/01 04:38:25;;;;;;;13.38;6.85;;;9.60;83.50;;;;;;5034446;28;20025;-76
2021/06/01 04:40:51;;;;;;;14.07;8.30;;;9.80;83.90;;;;;;5034512;28;20423;-77
2021/06/01 04:43:16;;;;;;;15.52;8.95;;;9.90;85.90;;;;;;5034322;28;20033;-76
2021/06/01 04:45:42;;;;;;;16.45;9.10;;;10.00;85.70;;;;;;5035310;28;20049;-77
2021/06/01 04:48:08;;;;;;;14.27;8.68;;;10.00;87.70;;;;;;5033813;28;20087;-76
2021/06/01 04:50:33;;;;;;;13.98;8.73;;;10.00;91.40;;;;;;5034370;28;20043;-77
2021/06/01 04:52:59;;;;;;;15.35;7.45;;;9.90;91.80;;;;;;5035282;28;20033;-77
2021/06/01 04:55:25;;;;;;;12.50;8.52;;;9.90;93.10;;;;;;5034296;28;20372;-76
2021/06/01 04:57:51;;;;;;;12.02;6.95;;;10.00;92.00;;;;;;5035412;28;20022;-76
2021/06/01 05:00:17;;;;;;;12.25;7.78;;;10.00;92.70;;;;;;5035353;28;20390;-77
2021/06/01 05:02:43;;;;;;;11.68;7.47;;;10.10;91.50;;;;;;5033791;28;20026;-76
2021/06/01 05:05:09;;;;;;;13.00;7.82;;;10.20;90.20;;;;;;5033917;28;20025;-77
2021/06/01 05:07:34;;;;;;;10.13;6.63;;;10.20;90.80;;;;;;5033963;28;20032;-76
2021/06/01 05:10:01;;;;;;;13.20;6.32;;;10.20;91.70;;;;;;5033733;28;20112;-77
2021/06/01 05:12:28;;;;;;;9.45;6.53;;;10.30;93.70;;;;;;5033888;28;20071;-76
2021/06/01 05:14:54;;;;;;;11.02;7.40;;;10.30;92.80;;;;;;5033664;28;20120;-76
2021/06/01 05:17:20;;;;;;;13.40;7.28;;;10.30;93.80;;;;;;5034697;28;20026;-77
2021/06/01 05:19:46;;;;;;;9.90;6.47;;;10.30;98.30;;;;;;5035111;28;20369;-78
2021/06/01 05:22:12;;;;;;;10.50;7.07;;;10.20;97.00;;;;;;5034910;28;20036;-78
2021/06/01 05:24:38;;;;;;;11.45;6.70;;;10.20;96.60;;;;;;5033600;28;20026;-77
2021/06/01 05:27:05;;;;;;;7.82;6.15;;;10.20;95.40;;;;;;5033690;28;20364;-77
2021/06/01 05:29:31;;;;;;;9.80;6.30;;;10.20;95.30;;;;;;5033498;28;20041;-77
2021/06/01 05:32:02;;;;;;;8.48;5.63;;;10.30;95.40;;;;;;5033362;28;20026;-77
2021/06/01 05:34:29;;;;;;;10.75;6.72;;;10.30;95.10;;;;;;5034881;28;20104;-77
2021/06/01 05:36:56;;;;;;;7.93;6.15;;;10.40;93.60;;;;;;5034771;28;20024;-77
2021/06/01 05:39:21;;;;;;;7.65;6.35;;;10.40;90.90;;;;;;5032825;28;20407;-77
2021/06/01 05:41:47;;;;;;;7.43;5.55;;;10.40;90.60;;;;;;5033374;28;20021;-77
2021/06/01 05:44:13;;;;;;;9.85;6.78;;;10.40;90.70;;;;;;5033512;28;20033;-77
2021/06/01 05:46:39;;;;;;;9.68;6.43;;;10.50;90.80;;;;;;5033954;28;20483;-77
2021/06/01 05:49:05;;;;;;;8.50;6.30;;;10.50;90.70;;;;;;5032517;28;20041;-77
2021/06/01 05:51:35;;;;;;;10.02;6.53;;;10.60;90.10;;;;;;5034257;28;20053;-77
2021/06/01 05:54:04;;;;;;;13.45;7.78;;;10.70;89.00;;;;;;5034345;28;20029;-76
2021/06/01 05:56:30;;;;;;;16.98;10.48;;;10.80;87.00;;;;;;5034877;28;20352;-76
2021/06/01 05:58:56;;;;;;;19.30;12.80;;;10.90;85.90;;;;;;5032884;28;20033;-77
2021/06/01 06:01:22;;;;;;;21.75;14.63;;;11.10;86.60;;;;;;5034355;28;20028;-77
2021/06/01 06:03:47;;;;;;;34.88;21.33;;;11.30;87.40;;;;;;5033539;28;20544;-77
2021/06/01 06:06:14;;;;;;;63.88;37.53;;;11.50;86.90;;;;;;5032822;28;20029;-78
2021/06/01 06:08:40;;;;;;;29.88;16.17;;;11.60;87.00;;;;;;5032014;28;20505;-77
2021/06/01 06:11:06;;;;;;;34.30;17.88;;;11.90;88.40;;;;;;5033713;28;20030;-78
2021/06/01 06:13:31;;;;;;;25.08;12.82;;;12.20;87.40;;;;;;5032561;28;20421;-77
2021/06/01 06:15:57;;;;;;;23.58;13.32;;;12.40;86.10;;;;;;5032471;28;20421;-78
2021/06/01 06:18:32;;;;;;;27.42;13.35;;;12.60;83.80;;;;;;5031829;28;20248;-77
2021/06/01 06:21:04;;;;;;;30.48;14.07;;;12.80;81.20;;;;;;5018129;28;20030;-78
2021/06/01 06:23:31;;;;;;;19.03;9.87;;;13.10;81.80;;;;;;5030610;28;20040;-78
2021/06/01 06:25:58;;;;;;;16.92;9.27;;;13.40;78.90;;;;;;5030248;28;20482;-77
2021/06/01 06:28:23;;;;;;;15.13;7.82;;;13.70;73.30;;;;;;5032090;28;20530;-78
2021/06/01 06:30:49;;;;;;;13.23;7.03;;;14.00;70.30;;;;;;5032343;28;20099;-78
2021/06/01 06:33:15;;;;;;;12.40;5.57;;;14.30;66.10;;;;;;5030416;28;20022;-78
2021/06/01 06:35:40;;;;;;;11.85;5.50;;;14.60;64.50;;;;;;5027971;28;20025;-78
2021/06/01 06:38:09;;;;;;;11.13;6.03;;;14.80;62.60;;;;;;5031697;28;20029;-78
2021/06/01 06:40:34;;;;;;;10.25;4.43;;;15.10;63.40;;;;;;5031447;28;20029;-78
2021/06/01 06:43:00;;;;;;;3.65;2.20;;;15.30;59.10;;;;;;5034548;28;20078;-78
2021/06/01 06:45:28;;;;;;;2.13;1.98;;;15.40;49.70;;;;;;5031335;28;20036;-78
2021/06/01 06:48:15;;;;;;;3.28;2.50;;;15.30;44.60;;;;;;5031626;28;20313;-77
2021/06/01 06:50:40;;;;;;;2.15;1.90;;;15.40;44.20;;;;;;5029878;28;20029;-78
2021/06/01 06:53:06;;;;;;;3.20;2.03;;;15.60;45.10;;;;;;5032550;28;20017;-78
2021/06/01 06:55:33;;;;;;;9.35;3.55;;;15.70;45.00;;;;;;5032624;28;20025;-79
2021/06/01 06:57:59;;;;;;;3.67;1.90;;;15.80;43.60;;;;;;5032793;28;20029;-78
2021/06/01 07:00:25;;;;;;;5.45;1.83;;;15.90;41.80;;;;;;5033166;28;20021;-78
2021/06/01 07:02:51;;;;;;;1.95;1.55;;;15.90;40.40;;;;;;5031605;28;20099;-78
2021/06/01 07:05:19;;;;;;;3.60;1.75;;;16.00;40.20;;;;;;5031278;28;20033;-78
2021/06/01 07:07:48;;;;;;;3.42;1.75;;;16.20;40.60;;;;;;5031140;28;20121;-78
2021/06/01 07:10:15;;;;;;;5.32;1.77;;;16.00;40.40;;;;;;5032640;28;20021;-78
2021/06/01 07:12:43;;;;;;;4.72;1.70;;;16.40;41.00;;;;;;5025120;28;20739;-79
2021/06/01 07:15:29;;;;;;;1.60;1.50;;;16.20;40.10;;;;;;5022972;28;20029;-78
2021/06/01 07:18:00;;;;;;;1.98;1.88;;;16.00;39.90;;;;;;5027904;28;20049;-79
2021/06/01 07:20:31;;;;;;;4.00;1.90;;;15.90;41.20;;;;;;5039973;28;20022;-79
2021/06/01 07:22:58;;;;;;;1.90;1.70;;;15.80;41.30;;;;;;5031264;28;20402;-79
2021/06/01 07:25:23;;;;;;;5.07;1.70;;;15.80;41.70;;;;;;5035722;28;20435;-79
2021/06/01 07:27:49;;;;;;;2.33;2.00;;;15.80;41.60;;;;;;5035987;28;20187;-79
2021/06/01 07:30:15;;;;;;;1.95;1.40;;;15.90;41.80;;;;;;5036823;28;20120;-79
2021/06/01 07:32:43;;;;;;;3.72;1.42;;;16.00;41.70;;;;;;5028974;28;20064;-79
2021/06/01 07:35:09;;;;;;;3.13;1.83;;;15.80;40.50;;;;;;5026134;28;20028;-78
2021/06/01 07:37:35;;;;;;;1.60;1.50;;;16.00;40.00;;;;;;5025256;28;20021;-77
2021/06/01 07:40:00;;;;;;;3.33;1.73;;;16.30;39.20;;;;;;5027648;28;20490;-79
2021/06/01 07:42:26;;;;;;;4.70;2.22;;;16.70;40.00;;;;;;5027941;28;20032;-78
2021/06/01 07:44:51;;;;;;;3.47;2.15;;;16.60;38.20;;;;;;5026021;28;20127;-78
2021/06/01 07:47:17;;;;;;;1.30;1.20;;;16.60;37.70;;;;;;5027959;28;20033;-78
2021/06/01 07:49:43;;;;;;;1.80;1.70;;;16.80;37.50;;;;;;5026085;28;20224;-79
2021/06/01 07:52:11;;;;;;;1.80;1.70;;;17.10;36.90;;;;;;5027021;28;20018;-79
2021/06/01 07:54:37;;;;;;;1.67;1.58;;;17.50;36.10;;;;;;5026078;28;20026;-79
2021/06/01 07:57:04;;;;;;;5.22;2.47;;;17.80;35.80;;;;;;5026401;28;20028;-79
2021/06/01 07:59:29;;;;;;;3.20;1.70;;;18.00;35.40;;;;;;5030010;28;20470;-79
2021/06/01 08:01:55;;;;;;;4.88;2.05;;;18.20;34.80;;;;;;5029602;28;20113;-79
2021/06/01 08:04:20;;;;;;;2.40;1.52;;;18.30;35.20;;;;;;5032373;28;20041;-78
2021/06/01 08:06:46;;;;;;;3.17;1.40;;;18.40;34.10;;;;;;5028654;28;20408;-79
2021/06/01 08:09:11;;;;;;;1.40;1.13;;;18.50;33.90;;;;;;5030979;28;20124;-78
2021/06/01 08:11:37;;;;;;;1.83;1.52;;;18.20;33.00;;;;;;5032557;28;20025;-79
2021/06/01 08:14:04;;;;;;;1.52;1.42;;;17.80;32.20;;;;;;5025226;28;20045;-78
2021/06/01 08:16:32;;;;;;;1.80;1.50;;;18.10;31.90;;;;;;5030800;28;20041;-79
2021/06/01 08:19:06;;;;;;;2.42;1.75;;;18.50;32.80;;;;;;5031407;28;20243;-78
2021/06/01 08:24:16;;;;;;;1.92;1.80;;;18.50;32.20;;;;;;5032395;28;20083;-79
2021/06/01 08:26:42;;;;;;;2.08;1.88;;;18.50;32.60;;;;;;5030043;28;20247;-79
2021/06/01 08:29:08;;;;;;;1.67;1.58;;;18.50;33.60;;;;;;5030813;28;20054;-79
2021/06/01 08:31:34;;;;;;;1.60;1.45;;;18.80;33.10;;;;;;5029580;28;20504;-78
2021/06/01 08:34:00;;;;;;;1.77;1.38;;;18.80;32.40;;;;;;5029618;28;20125;-79
2021/06/01 08:36:27;;;;;;;2.47;1.65;;;18.70;32.50;;;;;;5030127;28;20163;-78
2021/06/01 08:38:53;;;;;;;3.22;1.90;;;18.40;33.50;;;;;;5028276;28;20207;-79
2021/06/01 08:41:19;;;;;;;2.75;1.50;;;17.80;34.70;;;;;;5028433;28;20021;-79
2021/06/01 08:43:47;;;;;;;3.05;1.85;;;18.10;35.00;;;;;;5028715;28;20398;-78
2021/06/01 08:46:13;;;;;;;2.72;1.48;;;17.90;35.80;;;;;;5029325;28;20025;-78
2021/06/01 08:48:39;;;;;;;2.60;1.33;;;18.00;36.00;;;;;;5028045;28;20051;-77
2021/06/01 08:51:06;;;;;;;3.22;1.40;;;17.80;35.40;;;;;;5027614;28;20800;-78
2021/06/01 08:53:33;;;;;;;1.88;1.77;;;17.70;35.50;;;;;;5030229;28;20495;-79
2021/06/01 08:55:59;;;;;;;5.20;1.80;;;17.30;35.90;;;;;;5029899;28;20029;-79
2021/06/01 08:58:25;;;;;;;4.32;1.52;;;17.00;36.00;;;;;;5031591;28;20033;-79
2021/06/01 09:00:51;;;;;;;2.10;1.95;;;16.80;36.30;;;;;;5028490;28;20467;-78
2021/06/01 09:03:21;;;;;;;2.30;1.80;;;16.90;36.40;;;;;;5030625;28;20041;-78
2021/06/01 09:22:38;;;;;;;2.33;1.83;;;17.60;37.80;;;;;;5028089;28;20113;-78
2021/06/01 09:25:07;;;;;;;2.80;1.67;;;18.10;37.10;;;;;;5027007;28;20044;-79
2021/06/01 09:27:52;;;;;;;2.10;1.88;;;18.20;36.40;;;;;;5028678;28;20056;-79
2021/06/01 09:30:41;;;;;;;2.75;2.55;;;18.30;36.50;;;;;;5030494;28;20423;-78
2021/06/01 09:33:26;;;;;;;1.80;1.23;;;18.20;35.30;;;;;;5027095;28;20030;-79
2021/06/01 09:36:02;;;;;;;3.42;1.70;;;18.50;35.20;;;;;;5029014;28;20375;-79
2021/06/01 09:38:40;;;;;;;2.35;1.60;;;18.60;36.80;;;;;;5029583;28;20045;-78
2021/06/01 09:41:17;;;;;;;4.53;2.22;;;18.60;36.30;;;;;;5029061;28;20021;-80
2021/06/01 09:43:57;;;;;;;4.90;1.92;;;18.30;35.20;;;;;;5029068;28;20143;-79
2021/06/01 09:46:25;;;;;;;4.00;1.83;;;18.50;35.00;;;;;;5029726;28;20030;-79
2021/06/01 09:48:52;;;;;;;4.68;2.45;;;18.70;35.30;;;;;;5029956;28;20072;-79
2021/06/01 09:51:32;;;;;;;2.53;1.85;;;18.90;35.80;;;;;;5028036;28;20176;-79
2021/06/01 09:54:30;;;;;;;1.98;1.77;;;18.90;36.60;;;;;;5029307;28;20464;-79
2021/06/01 09:56:56;;;;;;;3.45;1.55;;;18.70;35.50;;;;;;5026208;28;20486;-79
2021/06/01 09:59:22;;;;;;;2.55;1.75;;;18.60;35.10;;;;;;5030691;28;20033;-79
2021/06/01 10:01:47;;;;;;;3.70;1.73;;;18.00;34.80;;;;;;5028921;28;20032;-79
2021/06/01 10:04:23;;;;;;;4.93;1.80;;;17.70;35.50;;;;;;5029313;28;20033;-79
2021/06/01 10:06:49;;;;;;;4.70;1.60;;;17.70;36.10;;;;;;5026313;28;20040;-78
2021/06/01 10:09:15;;;;;;;2.80;1.55;;;17.80;36.30;;;;;;5028328;28;20148;-78
2021/06/01 10:11:55;;;;;;;1.80;1.70;;;18.00;36.10;;;;;;5025821;28;20553;-78
2021/06/01 10:14:22;;;;;;;1.50;1.40;;;18.40;34.80;;;;;;5022394;28;20057;-78
2021/06/01 10:16:48;;;;;;;1.83;1.67;;;18.80;34.80;;;;;;5025603;28;20592;-78
2021/06/01 10:19:15;;;;;;;2.13;1.65;;;18.40;34.40;;;;;;5027604;28;20117;-78
2021/06/01 10:21:42;;;;;;;1.65;1.55;;;18.10;34.70;;;;;;5027034;28;20099;-78
2021/06/01 10:24:10;;;;;;;2.33;1.77;;;18.50;34.80;;;;;;5026685;28;20052;-78
2021/06/01 10:26:40;;;;;;;5.28;2.50;;;18.70;34.90;;;;;;5026206;28;20491;-78
2021/06/01 10:29:07;;;;;;;4.13;1.83;;;18.90;35.90;;;;;;5025976;28;20053;-79
2021/06/01 10:31:33;;;;;;;2.15;1.52;;;19.10;35.30;;;;;;5029206;28;20029;-79
2021/06/01 10:34:00;;;;;;;4.32;1.73;;;19.20;35.40;;;;;;5029823;28;20057;-78
2021/06/01 10:50:27;;;;;;;1.77;1.42;;;19.50;34.10;;;;;;5029839;28;20037;-79
2021/06/01 10:53:25;;;;;;;2.85;1.88;;;20.00;34.10;;;;;;5028148;28;20092;-78
2021/06/01 10:55:51;;;;;;;2.22;1.67;;;20.00;34.30;;;;;;5019430;28;20123;-78
2021/06/01 10:58:26;;;;;;;2.00;1.80;;;19.80;34.00;;;;;;5029696;28;20462;-78
2021/06/01 11:04:15;;;;;;;2.35;1.77;;;19.50;34.10;;;;;;5030227;28;20028;-78
2021/06/01 11:06:54;;;;;;;5.20;1.85;;;19.50;35.10;;;;;;5029448;28;20048;-78
2021/06/01 11:09:47;;;;;;;1.55;1.45;;;19.30;34.60;;;;;;5029809;28;20125;-78
2021/06/01 11:12:18;;;;;;;2.38;1.42;;;19.30;34.10;;;;;;5021435;28;20033;-79
2021/06/01 11:14:45;;;;;;;1.67;1.48;;;19.60;34.50;;;;;;5026448;28;20077;-78
2021/06/01 11:17:11;;;;;;;1.85;1.40;;;19.70;34.10;;;;;;5030290;28;20030;-79
2021/06/01 11:19:56;;;;;;;3.13;1.70;;;20.10;34.90;;;;;;5029904;28;20049;-79
2021/06/01 11:22:34;;;;;;;2.15;1.65;;;20.10;33.50;;;;;;5030009;28;20018;-79
2021/06/01 11:33:37;;;;;;;2.10;1.60;;;19.90;34.50;;;;;;5026772;28;20379;-78
2021/06/01 11:36:12;;;;;;;2.60;1.60;;;19.80;34.90;;;;;;5028362;28;20016;-77
2021/06/01 11:43:47;;;;;;;3.47;1.60;;;20.50;35.30;;;;;;5034949;28;20325;-79
2021/06/01 11:51:29;;;;;;;3.92;1.83;;;20.40;34.00;;;;;;5031453;28;20038;-78
2021/06/01 11:54:02;;;;;;;3.15;2.10;;;20.40;33.70;;;;;;5033241;28;21121;-78
2021/06/01 12:02:17;;;;;;;2.67;1.75;;;19.60;34.90;;;;;;5034838;28;20530;-79
2021/06/01 12:12:53;;;;;;;2.28;1.90;;;19.50;35.80;;;;;;5033716;28;20029;-78
2021/06/01 12:18:22;;;;;;;2.28;1.80;;;19.70;35.90;;;;;;5032830;28;20076;-78
2021/06/01 12:20:48;;;;;;;1.92;1.73;;;19.60;35.00;;;;;;5032215;28;20286;-78
2021/06/01 12:23:30;;;;;;;2.15;1.98;;;19.40;34.90;;;;;;5034856;28;20036;-77
2021/06/01 12:32:28;;;;;;;2.22;1.65;;;19.30;35.60;;;;;;5028997;28;20033;-79
2021/06/01 12:43:46;;;;;;;3.35;1.95;;;19.50;35.20;;;;;;5037128;28;20450;-79
2021/06/01 13:19:50;;;;;;;1.75;1.65;;;19.50;37.20;;;;;;5033518;28;20040;-79
2021/06/01 13:30:44;;;;;;;1.95;1.85;;;19.50;37.50;;;;;;5026012;28;20247;-79
2021/06/01 13:46:37;;;;;;;3.08;1.65;;;19.40;35.90;;;;;;5032721;28;20041;-80
2021/06/01 13:57:14;;;;;;;2.38;1.65;;;20.00;36.20;;;;;;5032397;28;20041;-80
2021/06/01 15:48:13;;;;;;;6.53;2.70;;;18.90;38.80;;;;;;5030251;28;20043;-83
2021/06/01 15:50:59;;;;;;;5.97;2.25;;;19.00;39.10;;;;;;5030094;28;20021;-83
2021/06/01 16:13:26;;;;;;;1.92;1.83;;;19.10;38.00;;;;;;5030415;28;20037;-82
2021/06/01 16:21:33;;;;;;;3.70;2.30;;;18.90;39.20;;;;;;5027771;28;20091;-83
2021/06/01 16:29:44;;;;;;;6.82;2.50;;;18.50;40.70;;;;;;5031746;28;20548;-82
2021/06/01 17:04:51;;;;;;;12.38;5.28;;;18.10;42.70;;;;;;5029406;28;20033;-83
2021/06/01 17:13:04;;;;;;;8.13;3.67;;;17.80;44.60;;;;;;5026837;28;20115;-84
2021/06/01 17:15:31;;;;;;;6.15;3.30;;;17.70;45.20;;;;;;5030577;28;20029;-84
2021/06/01 17:18:06;;;;;;;5.53;3.33;;;17.70;45.90;;;;;;5024867;28;20458;-84
2021/06/01 17:36:58;;;;;;;7.70;3.95;;;17.40;48.00;;;;;;5027116;28;20446;-83
2021/06/01 17:39:24;;;;;;;11.90;4.78;;;17.40;48.80;;;;;;5026510;28;20052;-84
2021/06/01 17:41:54;;;;;;;5.90;3.78;;;17.30;50.00;;;;;;5027052;28;20455;-83
2021/06/01 17:44:23;;;;;;;9.48;5.35;;;17.30;49.40;;;;;;5027311;28;20615;-82
2021/06/01 17:46:50;;;;;;;12.15;6.20;;;17.20;50.10;;;;;;5027093;28;20021;-81
2021/06/01 17:49:21;;;;;;;14.98;5.90;;;17.10;48.70;;;;;;5029233;28;20057;-82
2021/06/01 17:51:52;;;;;;;10.82;6.93;;;17.10;49.50;;;;;;5026760;28;20573;-82
2021/06/01 17:54:30;;;;;;;11.88;6.45;;;17.10;50.10;;;;;;5025648;28;20041;-82
2021/06/01 17:57:00;;;;;;;16.55;6.43;;;17.00;51.40;;;;;;5025439;28;20034;-83
2021/06/01 17:59:28;;;;;;;8.82;4.30;;;17.00;51.90;;;;;;5029020;28;20162;-82
2021/06/01 18:01:56;;;;;;;6.15;3.83;;;17.00;51.40;;;;;;5025119;28;20502;-85
2021/06/01 18:04:24;;;;;;;4.70;3.28;;;16.90;50.90;;;;;;5028189;28;20491;-83
2021/06/01 18:06:55;;;;;;;6.43;4.20;;;16.80;51.10;;;;;;5028036;28;20025;-84
2021/06/01 19:05:58;;;;;;;10.23;5.55;;;15.50;58.40;;;;;;5028334;28;20095;-83
2021/06/01 19:24:11;;;;;;;22.63;10.63;;;14.90;62.10;;;;;;5030237;28;20029;-82
2021/06/01 19:44:09;;;;;;;31.92;14.05;;;14.70;65.50;;;;;;5029695;28;20092;-81
2021/06/01 19:51:46;;;;;;;17.58;8.93;;;14.60;67.90;;;;;;5029276;28;20167;-81
2021/06/01 19:54:19;;;;;;;28.17;13.38;;;14.50;69.00;;;;;;5029675;28;20112;-82
2021/06/01 19:56:46;;;;;;;;;;;14.50;67.50;;;;;;5028790;28;20017;-81
2021/06/01 19:59:15;;;;;;;37.88;15.93;;;14.50;66.00;;;;;;5034900;28;19905;-81
2021/06/01 20:01:41;;;;;;;36.85;16.63;;;14.50;66.00;;;;;;5033363;28;20118;-81
2021/06/01 20:04:07;;;;;;;41.28;16.77;;;14.50;67.50;;;;;;5032591;28;20112;-83
2021/06/01 20:06:33;;;;;;;48.28;19.75;;;14.50;70.00;;;;;;5032323;28;20033;-79
2021/06/01 20:08:59;;;;;;;40.47;19.17;;;14.50;69.50;;;;;;5031145;28;20029;-79
2021/06/01 20:11:26;;;;;;;60.80;23.50;;;14.50;68.30;;;;;;5033192;28;20390;-79
2021/06/01 20:13:52;;;;;;;71.25;27.52;;;14.40;66.50;;;;;;5033360;28;20099;-79
2021/06/01 20:16:23;;;;;;;111.53;45.15;;;14.30;67.30;;;;;;5033116;28;20475;-78
2021/06/01 20:18:51;;;;;;;99.20;40.13;;;14.30;67.40;;;;;;5032982;28;20032;-78